EGXZ

RAF Topcliffe Airport

Topcliffe, United Kingdom
METAR EGXZ 221650Z AUTO 24012KT 9999 FEW022/// SCT036/// 13/07 Q1006
Observed Flight Rules
Apr-22 @ 16:50 UTC (an hour ago) Visual Flight Rules
Wind Visibility Clouds
240° at 12 knots 10,000+ meters
  • Few at 2,200' AGL
  • Scattered at 3,600' AGL
Temperatures Readings
Current 13°C / 55°F
Dewpoint 7°C / 45°F
Humidity 67%
Altimeter 29.7" Hg
Pressure 1006 hPa
Elevation 28
METAR EGXZ 221650Z AUTO 24012KT 9999 FEW022/// SCT036/// 13/07 Q1006
Observed Flight Rules
Apr-22 @ 16:50 UTC
(an hour ago)
VFR
Wind Visibility
240° at 12 knots 10,000+ meters
Clouds
  • Few at 2,200' AGL
  • Scattered at 3,600' AGL
Temperature Dewpoint
13°C / 55°F 7°C / 45°F
Humidity Altimeter Pressure
67% 29.7" Hg 1006 hPa